Location San Luis Obispo, CA, US

ob kcasanlu1 161446Z AUTO 28005G05KT CLR 11/09 A3014 RMK SLPNO 

2018.01.16 1446 UTC
Wind from the W (279 degrees) at 6.0 MPH (5 KT) gusting to 6.0 MPH (5 KT)
Visibility    Mile(s)
Sky Conditions  clear
Temperature 51.90 F (11 C)
Dew Point 48.46 F (9 C)
Relative Humidity 88%
Pressure   30.14 in. Hg (1021 hPa)
Rain  0.00 in.
Daily Rain  in.

Station Name  www.sloweather.com
Longitude, Latitude  -120.71, 35.26
Elevation 310
Station URL www.sloweather.com
Software Type VWS V14.00